Flight Track Log - Related Links

Times and Time Zones

All times are in EDT time to prevent confusion due to time zone crossing. See the N929SR flight status page for this flight to view local times or setup timezone preferences in your user account.

Time Position Orientation Groundspeed Altitude Reporting Facility
EDT Latitude Longitude Course Direction KTS MPH feet Rate Location/Type
Mon 08:00:37 AM 43.2528 -75.4419 250° West 158 182 1,200  Level Boston Center
Mon 08:02:40 AM 43.2136 -75.5856 250° West 260 299 8,000 3,344 Climbing Boston Center
Mon 08:03:40 AM 43.1572 -75.6594 224° Southwest 271 312 11,400 2,950 Climbing Boston Center
Mon 08:04:40 AM 43.0925 -75.7442 224° Southwest 297 342 13,900 2,450 Climbing Boston Center
Mon 08:05:40 AM 42.9997 -75.7789 195° South 324 373 16,300 2,300 Climbing Boston Center
Mon 08:06:40 AM 42.8928 -75.7931 186° South 344 396 18,500 2,250 Climbing Boston Center
Mon 08:07:40 AM 42.7842 -75.8069 185° South 380 437 20,800 2,000 Climbing Boston Center
Mon 08:08:40 AM 42.6981 -75.8247 189° South 393 452 22,500 2,050 Climbing Boston Center
Mon 08:09:40 AM 42.5653 -75.8739 195° South 398 458 24,900 2,250 Climbing Boston Center
Mon 08:10:40 AM 42.4772 -75.9619 216° Southwest 393 452 27,000 2,041 Climbing Boston Center
Mon 08:12:54 AM 42.3189 -76.2169 230° Southwest 414 476 31,500 1,990 Climbing New York Center
Mon 08:13:56 AM 42.2428 -76.3311 228° Southwest 419 482 33,500 1,388 Climbing New York Center
Mon 08:14:55 AM 42.1642 -76.4531 229° Southwest 419 482 34,300 1,210 Climbing New York Center
Mon 08:15:55 AM 42.0814 -76.5772 228° Southwest 431 496 35,900 1,884 Climbing New York Center
Mon 08:16:56 AM 42.0003 -76.6986 228° Southwest 444 511 38,100 2,067 Climbing New York Center
Mon 08:17:54 AM 41.9236 -76.8144 228° Southwest 439 505 40,000 966 Climbing New York Center
Mon 08:18:54 AM 41.8358 -76.9428 227° Southwest 439 505 40,000  Level New York Center
Mon 08:19:54 AM 41.7522 -77.0714 229° Southwest 448 516 40,000  Level New York Center
Mon 08:20:54 AM 41.6639 -77.2017 228° Southwest 466 536 40,000  Level New York Center
Mon 08:21:55 AM 41.5775 -77.3350 229° Southwest 472 543 40,000  Level New York Center
Mon 08:22:55 AM 41.4933 -77.4597 228° Southwest 472 543 40,000  Level New York Center
Mon 08:23:54 AM 41.4092 -77.5842 228° Southwest 467 537 40,000  Level New York Center
Mon 08:26:11 AM 41.2186 -77.8556 227° Southwest 458 527 40,000  Level Cleveland Center
Mon 08:27:11 AM 41.1342 -77.9806 228° Southwest 458 527 40,000  Level Cleveland Center
Mon 08:28:11 AM 41.0453 -78.1081 227° Southwest 458 527 40,000  Level Cleveland Center
Mon 08:29:11 AM 40.9500 -78.2436 227° Southwest 458 527 40,000  Level Cleveland Center
Mon 08:30:11 AM 40.8650 -78.3728 229° Southwest 463 533 40,000  Level Cleveland Center
Mon 08:31:11 AM 40.7736 -78.4967 226° Southwest 468 539 40,000  Level Cleveland Center
Mon 08:32:11 AM 40.6861 -78.6253 228° Southwest 468 539 40,000  Level Cleveland Center
Mon 08:33:11 AM 40.5986 -78.7508 227° Southwest 468 539 40,000  Level Cleveland Center
Mon 08:34:11 AM 40.5089 -78.8764 227° Southwest 473 544 40,000  Level Cleveland Center
Mon 08:35:11 AM 40.4189 -79.0042 227° Southwest 473 544 40,000  Level Cleveland Center
Mon 08:36:11 AM 40.3289 -79.1289 227° Southwest 478 550 40,000  Level Cleveland Center
Mon 08:37:11 AM 40.2408 -79.2503 226° Southwest 473 544 40,000  Level Cleveland Center
Mon 08:38:11 AM 40.1544 -79.3717 227° Southwest 473 544 40,000  Level Cleveland Center
Mon 08:39:11 AM 40.0744 -79.4817 226° Southwest 473 544 40,000  Level Cleveland Center
Mon 08:40:11 AM 39.9839 -79.6050 226° Southwest 473 544 40,000  Level Cleveland Center
Mon 08:41:11 AM 39.8950 -79.7281 227° Southwest 473 544 40,000  Level Cleveland Center
Mon 08:42:11 AM 39.8064 -79.8508 227° Southwest 473 544 40,000  Level Cleveland Center
Mon 08:44:30 AM 39.5939 -80.1361 226° Southwest 465 535 40,000  Level Indianapolis Center
Mon 08:45:32 AM 39.5036 -80.2572 226° Southwest 467 537 40,000  Level Indianapolis Center
Mon 08:46:33 AM 39.4136 -80.3800 227° Southwest 470 541 40,000  Level Indianapolis Center
Mon 08:47:35 AM 39.3219 -80.5000 225° Southwest 470 541 40,000  Level Indianapolis Center
Mon 08:48:37 AM 39.2308 -80.6208 226° Southwest 470 541 40,000  Level Indianapolis Center
Mon 08:49:38 AM 39.1222 -80.7656 226° Southwest 466 536 40,000  Level Indianapolis Center
Mon 08:50:40 AM 39.0322 -80.8847 226° Southwest 464 534 40,000  Level Indianapolis Center
Mon 08:51:42 AM 38.9408 -81.0039 225° Southwest 465 535 40,000  Level Indianapolis Center
Mon 08:52:43 AM 38.8492 -81.1233 225° Southwest 466 536 40,000  Level Indianapolis Center
Mon 08:53:45 AM 38.7564 -81.2431 225° Southwest 469 540 40,000  Level Indianapolis Center
Mon 08:54:47 AM 38.6539 -81.3753 225° Southwest 471 542 40,000  Level Indianapolis Center
Mon 08:55:48 AM 38.5756 -81.5106 234° Southwest 471 542 40,000  Level Indianapolis Center
Mon 08:56:50 AM 38.4931 -81.6394 231° Southwest 483 556 40,000 97 Level Indianapolis Center
Mon 08:57:52 AM 38.4119 -81.7703 232° Southwest 473 544 40,200 484 Climbing Indianapolis Center
Mon 08:58:54 AM 38.3306 -81.8967 231° Southwest 461 531 41,000 387 Climbing Indianapolis Center
Mon 08:59:56 AM 38.2492 -82.0267 231° Southwest 469 540 41,000  Level Indianapolis Center
Mon 09:00:57 AM 38.1503 -82.1817 231° Southwest 471 542 41,000  Level Indianapolis Center
Mon 09:01:59 AM 38.0694 -82.3072 231° Southwest 466 536 41,000  Level Indianapolis Center
Mon 09:03:01 AM 37.9886 -82.4344 231° Southwest 463 533 41,000  Level Indianapolis Center
Mon 09:04:03 AM 37.9069 -82.5589 230° Southwest 459 528 41,000  Level Indianapolis Center
Mon 09:05:05 AM 37.8247 -82.6867 231° Southwest 464 534 41,000  Level Indianapolis Center
Mon 09:06:06 AM 37.7428 -82.8125 231° Southwest 462 532 41,000  Level Indianapolis Center
Mon 09:07:08 AM 37.6469 -82.9600 231° Southwest 464 534 41,000  Level Indianapolis Center
Mon 09:08:10 AM 37.5647 -83.0853 230° Southwest 464 534 41,000  Level Indianapolis Center
Mon 09:09:12 AM 37.4833 -83.2103 231° Southwest 463 533 41,000  Level Indianapolis Center
Mon 09:10:14 AM 37.4003 -83.3358 230° Southwest 466 536 41,000  Level Indianapolis Center
Mon 09:11:16 AM 37.3172 -83.4608 230° Southwest 468 539 41,000  Level Indianapolis Center
Mon 09:12:18 AM 37.2192 -83.6064 230° Southwest 469 540 41,000  Level Indianapolis Center
Mon 09:13:19 AM 37.1356 -83.7325 230° Southwest 473 544 41,000  Level Indianapolis Center
Mon 09:14:21 AM 37.0517 -83.8569 230° Southwest 471 542 41,000  Level Indianapolis Center
Mon 09:15:23 AM 36.9683 -83.9819 230° Southwest 468 539 41,000  Level Indianapolis Center
Mon 09:16:25 AM 36.8836 -84.1061 230° Southwest 469 540 41,000  Level Indianapolis Center
Mon 09:17:27 AM 36.7853 -84.2517 230° Southwest 470 541 41,000  Level Indianapolis Center
Mon 09:18:29 AM 36.7003 -84.3753 229° Southwest 470 541 41,000  Level Indianapolis Center
Mon 09:19:31 AM 36.6169 -84.4994 230° Southwest 468 539 41,000  Level Indianapolis Center
Mon 09:20:33 AM 36.5306 -84.6231 229° Southwest 467 537 41,000  Level Indianapolis Center
Mon 09:21:35 AM 36.4458 -84.7458 229° Southwest 468 539 41,000  Level Indianapolis Center
Mon 09:22:37 AM 36.3608 -84.8686 229° Southwest 470 541 41,000  Level Indianapolis Center
Mon 09:23:39 AM 36.2589 -85.0150 229° Southwest 471 542 41,000  Level Indianapolis Center
Mon 09:24:41 AM 36.1742 -85.1375 229° Southwest 473 544 41,000  Level Indianapolis Center
Mon 09:25:43 AM 36.0881 -85.2583 229° Southwest 473 544 41,000  Level Indianapolis Center
Mon 09:26:45 AM 36.0031 -85.3783 229° Southwest 470 541 41,000  Level Indianapolis Center
Mon 09:27:27 AM 35.9333 -85.4758 229° Southwest 471 542 41,000  Level Memphis Center
Mon 09:29:43 AM 35.7547 -85.7303 229° Southwest 457 526 41,000  Level Atlanta Center
Mon 09:30:43 AM 35.6717 -85.8461 229° Southwest 457 526 41,000  Level Atlanta Center
Mon 09:31:43 AM 35.5864 -85.9642 228° Southwest 457 526 41,000  Level Atlanta Center
Mon 09:32:43 AM 35.5031 -86.0822 229° Southwest 457 526 41,000  Level Atlanta Center
Mon 09:33:43 AM 35.4114 -86.1997 226° Southwest 464 534 41,000  Level Atlanta Center
Mon 09:34:43 AM 35.3281 -86.3172 229° Southwest 465 535 41,000  Level Atlanta Center
Mon 09:35:43 AM 35.2422 -86.4369 229° Southwest 465 535 41,000  Level Atlanta Center
Mon 09:36:43 AM 35.1628 -86.5489 229° Southwest 460 529 41,000  Level Atlanta Center
Mon 09:37:43 AM 35.0769 -86.6656 228° Southwest 455 524 41,000  Level Atlanta Center
Mon 09:38:15 AM 35.0314 -86.7256 227° Southwest 452 520 41,000  Level Memphis Center
Mon 09:39:15 AM 34.9489 -86.8381 228° Southwest 452 520 41,000  Level Memphis Center
Mon 09:40:15 AM 34.8567 -86.9658 229° Southwest 458 527 41,000  Level Memphis Center
Mon 09:41:15 AM 34.7719 -87.0806 228° Southwest 453 521 41,000  Level Memphis Center
Mon 09:42:15 AM 34.6894 -87.1950 229° Southwest 447 514 41,000  Level Memphis Center
Mon 09:43:15 AM 34.6044 -87.3014 226° Southwest 453 521 41,000  Level Memphis Center
Mon 09:44:15 AM 34.5236 -87.4103 228° Southwest 443 510 41,000  Level Memphis Center
Mon 09:45:15 AM 34.4344 -87.5242 227° Southwest 443 510 41,000  Level Memphis Center
Mon 09:46:15 AM 34.3342 -87.6056 214° Southwest 453 521 41,000  Level Memphis Center
Mon 09:47:15 AM 34.2231 -87.6744 207° Southwest 453 521 41,000  Level Memphis Center
Mon 09:48:15 AM 34.1139 -87.7406 207° Southwest 448 516 41,000  Level Memphis Center
Mon 09:49:15 AM 34.0189 -87.8011 208° Southwest 440 506 41,000  Level Memphis Center
Mon 09:50:15 AM 33.9056 -87.8694 207° Southwest 440 506 41,000 -400 Level Memphis Center
Mon 09:51:15 AM 33.7861 -87.9503 209° Southwest 446 513 40,200 -1,000 Descending Memphis Center
Mon 09:52:15 AM 33.6811 -88.0156 207° Southwest 441 507 39,000 -1,550 Descending Memphis Center
Mon 09:53:15 AM 33.5694 -88.0836 207° Southwest 446 513 37,100 -1,850 Descending Memphis Center
Mon 09:54:15 AM 33.4581 -88.1511 207° Southwest 446 513 35,300 -1,750 Descending Memphis Center
Mon 09:55:15 AM 33.3528 -88.2183 208° Southwest 441 507 33,600 -1,850 Descending Memphis Center
Mon 09:56:15 AM 33.2817 -88.3369 234° Southwest 435 501 31,600 -2,100 Descending Memphis Center
Mon 09:57:15 AM 33.2169 -88.4750 241° Southwest 457 526 29,400 -2,250 Descending Memphis Center
Mon 09:58:15 AM 33.1461 -88.6156 239° Southwest 477 549 27,100 -2,250 Descending Memphis Center
Mon 09:59:15 AM 33.0789 -88.7531 240° Southwest 488 562 24,900 -2,200 Descending Memphis Center
Mon 10:00:15 AM 33.0139 -88.8831 239° Southwest 478 550 22,700 -2,150 Descending Memphis Center
Mon 10:01:15 AM 32.9486 -89.0131 239° Southwest 473 544 20,600 -2,050 Descending Memphis Center
Mon 10:02:15 AM 32.9144 -89.1397 252° West 473 544 18,600 -1,750 Descending Memphis Center
Mon 10:03:15 AM 32.9197 -89.2856 273° West 445 512 17,100 -1,650 Descending Memphis Center
Mon 10:04:15 AM 32.9272 -89.4267 274° West 445 512 15,300 -1,050 Descending Memphis Center
Mon 10:05:15 AM 32.9344 -89.5678 274° West 440 506 15,000 -150 Descending Memphis Center
Mon 10:06:15 AM 32.9292 -89.7064 267° West 433 498 15,000 -1,050 Level Memphis Center
Mon 10:07:15 AM 32.8586 -89.8156 232° Southwest 393 452 12,900 -2,500 Descending Memphis Center
Mon 10:08:15 AM 32.7900 -89.8853 221° Southwest 345 397 10,000 -2,800 Descending Memphis Center
Mon 10:09:15 AM 32.7317 -89.9425 220° Southwest 320 368 7,300 -2,650 Descending Memphis Center
Mon 10:10:15 AM 32.6756 -90.0019 222° Southwest 292 336 4,700 -2,500 Descending Memphis Center
Mon 10:11:15 AM 32.6319 -90.0686 232° Southwest 275 316 2,300 -1,350 Descending Memphis Center
Mon 10:12:15 AM 32.5925 -90.1306 233° Southwest 256 295 2,000 -150 Descending Memphis Center
Mon 10:13:15 AM 32.5592 -90.1847 234° Southwest 228 262 2,000  Level Memphis Center
Mon 10:14:15 AM 32.5300 -90.2342 235° Southwest 216 249 2,000  Level Memphis Center
Mon 10:15:15 AM 32.4903 -90.2736 220° Southwest 203 234 2,000  Level Memphis Center
Mon 10:16:15 AM 32.4422 -90.2711 177° South 171 197 2,000 -200 Level Memphis Center
Mon 10:17:15 AM 32.4025 -90.2539 160° South 152 175 1,600 -550 Descending Memphis Center
Mon 10:18:15 AM 32.3650 -90.2344 156° South 147 169 900 -450 Descending Memphis Center
Mon 10:19:15 AM 32.3192 -90.2269 172° South 147 169 700 2,550 Descending Memphis Center
Mon 10:20:15 AM 32.2772 -90.2147 166° South 147 169 6,000 2,650 Climbing Memphis Center
Mon 10:21:15 AM 32.2356 -90.2025 166° South 147 169 6,000  Level Memphis Center
Mon 10:23:00 AM 32.3333 -90.2167 348° North  Level FlightAware Approximate

Login

Don't have an account? Register now (free) for customized features, flight alerts, and more!